Terminal Aerodrome Forecast
Issued by NWS Knoxville/Tri Cities, TN

Home | Current Version | Previous Version | Text Only | Print | Product List | Glossary On
Versions: 1 2 3 4 5 6 7 8 9 10 11 12 13 14 15 16 17 18 19
000
FTUS44 KMRX 251120
TAFTRI
TAF
KTRI 251120Z 2512/2612 00000KT 6SM BR SCT002
     FM251300 28003KT P6SM SKC
     FM252000 24006KT P6SM BKN060
     FM260200 25003KT P6SM BKN035
     FM260600 27003KT P6SM BKN015=

USA.gov is the U.S. government's official web portal to all federal, state and local government web resources and services.